ADNAM12 EGXC-EGXC
Flight info
| Callsign | ADNAM12 |
|---|---|
| Flight time | 1h 25m |
| Altitude | 14000 |
| Route | LIBSO DCT LECND DCT GASKO DCT RIBEL DCT CALDA DCT WTN DCT TUPEM DCT LAKEY DCT APPLE DCT UVAVU DCT DOPEK DCT NAPEX |
| Aircraft | EUFI/M-SDGHITUY/LB1 |
Departure
| Time | 2026-04-19 08:33 |
|---|---|
| Airport | RAF Coningsby (EGXC) |
Arrival
| Time | 2026-04-19 09:58 |
|---|---|
| Airport | RAF Coningsby (EGXC) |
| Time | Latitude | Longitude | Altitude | Speed | Heading |
|---|---|---|---|---|---|
| 2026-04-19 08:23 | 53.09363 | -0.17917 | 25 ft | 0 kts | 65° |
| 2026-04-19 08:30 | 53.09365 | -0.17910 | 25 ft | 3 kts | 64° |
| 2026-04-19 08:30 | 53.09376 | -0.17874 | 26 ft | 6 kts | 65° |
| 2026-04-19 08:30 | 53.09360 | -0.17744 | 27 ft | 13 kts | 114° |
| 2026-04-19 08:30 | 53.09322 | -0.17608 | 25 ft | 13 kts | 117° |
| 2026-04-19 08:31 | 53.09343 | -0.17402 | 27 ft | 34 kts | 71° |
| 2026-04-19 08:31 | 53.09418 | -0.17021 | 25 ft | 37 kts | 72° |
| 2026-04-19 08:31 | 53.09495 | -0.16629 | 25 ft | 34 kts | 72° |
| 2026-04-19 08:31 | 53.09570 | -0.16250 | 27 ft | 36 kts | 72° |
| 2026-04-19 08:32 | 53.09643 | -0.15873 | 27 ft | 33 kts | 73° |
| 2026-04-19 08:32 | 53.09711 | -0.15529 | 25 ft | 30 kts | 72° |
| 2026-04-19 08:32 | 53.09776 | -0.15215 | 26 ft | 28 kts | 83° |
| 2026-04-19 08:32 | 53.09828 | -0.14907 | 27 ft | 31 kts | 89° |
| 2026-04-19 08:33 | 53.09720 | -0.14701 | 26 ft | 16 kts | 195° |
| 2026-04-19 08:33 | 53.09648 | -0.14936 | 26 ft | 81 kts | 253° |
| 2026-04-19 08:33 | 53.09266 | -0.16860 | 527 ft | 188 kts | 254° |
| 2026-04-19 08:33 | 53.08834 | -0.19020 | 3591 ft | 204 kts | 255° |
| 2026-04-19 08:34 | 53.09198 | -0.21333 | 5749 ft | 250 kts | 322° |
| 2026-04-19 08:34 | 53.10742 | -0.23183 | 5483 ft | 360 kts | 328° |
| 2026-04-19 08:34 | 53.12881 | -0.25444 | 5209 ft | 361 kts | 327° |
| 2026-04-19 08:34 | 53.14973 | -0.27715 | 6159 ft | 366 kts | 327° |
| 2026-04-19 08:35 | 53.17085 | -0.30004 | 6959 ft | 365 kts | 331° |
| 2026-04-19 08:35 | 53.19501 | -0.31232 | 7569 ft | 369 kts | 355° |
| 2026-04-19 08:35 | 53.22060 | -0.30824 | 7842 ft | 372 kts | 10° |
| 2026-04-19 08:35 | 53.24579 | -0.29808 | 7948 ft | 371 kts | 13° |
| 2026-04-19 08:36 | 53.26770 | -0.28772 | 7986 ft | 373 kts | 15° |
| 2026-04-19 08:37 | 53.26894 | -0.28711 | 7987 ft | 371 kts | 15° |
| 2026-04-19 08:37 | 53.29361 | -0.27471 | 7999 ft | 370 kts | 15° |
| 2026-04-19 08:37 | 53.31834 | -0.26196 | 8005 ft | 371 kts | 15° |
| 2026-04-19 08:38 | 53.34305 | -0.24906 | 8018 ft | 373 kts | 15° |
| 2026-04-19 08:38 | 53.36776 | -0.23608 | 8018 ft | 373 kts | 15° |
| 2026-04-19 08:38 | 53.39250 | -0.22305 | 8018 ft | 372 kts | 15° |
| 2026-04-19 08:38 | 53.41720 | -0.21003 | 8018 ft | 371 kts | 16° |
| 2026-04-19 08:39 | 53.44197 | -0.19699 | 8020 ft | 371 kts | 15° |
| 2026-04-19 08:39 | 53.46673 | -0.18394 | 8025 ft | 373 kts | 16° |
| 2026-04-19 08:39 | 53.49146 | -0.17089 | 8026 ft | 373 kts | 16° |
| 2026-04-19 08:39 | 53.51465 | -0.15134 | 7742 ft | 376 kts | 33° |
| 2026-04-19 08:40 | 53.53291 | -0.12073 | 7006 ft | 375 kts | 56° |
| 2026-04-19 08:40 | 53.54230 | -0.08008 | 6239 ft | 375 kts | 75° |
| 2026-04-19 08:40 | 53.54735 | -0.03759 | 5084 ft | 364 kts | 78° |
| 2026-04-19 08:40 | 53.55119 | 0.00478 | 4232 ft | 363 kts | 80° |
| 2026-04-19 08:41 | 53.55459 | 0.04695 | 3010 ft | 359 kts | 81° |
| 2026-04-19 08:41 | 53.55865 | 0.08804 | 2143 ft | 347 kts | 64° |
| 2026-04-19 08:41 | 53.57651 | 0.11044 | 2750 ft | 343 kts | 358° |
| 2026-04-19 08:41 | 53.59343 | 0.08659 | 2986 ft | 354 kts | 276° |
| 2026-04-19 08:42 | 53.58963 | 0.04495 | 2831 ft | 361 kts | 260° |
| 2026-04-19 08:42 | 53.57448 | 0.01575 | 2472 ft | 359 kts | 186° |
| 2026-04-19 08:42 | 53.55885 | 0.03181 | 1374 ft | 268 kts | 122° |
| 2026-04-19 08:42 | 53.54849 | 0.05745 | 746 ft | 264 kts | 123° |
| 2026-04-19 08:43 | 53.53807 | 0.08231 | 484 ft | 260 kts | 128° |
| 2026-04-19 08:43 | 53.52485 | 0.10262 | 428 ft | 259 kts | 145° |
| 2026-04-19 08:43 | 53.51003 | 0.11980 | 427 ft | 259 kts | 144° |
| 2026-04-19 08:43 | 53.49525 | 0.13692 | 427 ft | 258 kts | 145° |
| 2026-04-19 08:44 | 53.48058 | 0.15384 | 428 ft | 258 kts | 146° |
| 2026-04-19 08:44 | 53.46604 | 0.17116 | 418 ft | 240 kts | 120° |
| 2026-04-19 08:44 | 53.47010 | 0.19587 | 443 ft | 254 kts | 50° |
| 2026-04-19 08:44 | 53.48061 | 0.21870 | 973 ft | 242 kts | 49° |
| 2026-04-19 08:45 | 53.49126 | 0.24090 | 1347 ft | 237 kts | 40° |
| 2026-04-19 08:45 | 53.50566 | 0.24606 | 1217 ft | 220 kts | 333° |
| 2026-04-19 08:45 | 53.51310 | 0.22468 | 747 ft | 218 kts | 242° |
| 2026-04-19 08:45 | 53.50264 | 0.20118 | 510 ft | 326 kts | 234° |
| 2026-04-19 08:46 | 53.48800 | 0.16803 | 314 ft | 334 kts | 242° |
| 2026-04-19 08:46 | 53.47643 | 0.13792 | 1458 ft | 292 kts | 207° |
| 2026-04-19 08:46 | 53.46118 | 0.14579 | 1539 ft | 244 kts | 114° |
| 2026-04-19 08:46 | 53.46295 | 0.17114 | 1025 ft | 231 kts | 51° |
| 2026-04-19 08:47 | 53.47230 | 0.19355 | 1104 ft | 239 kts | 52° |
| 2026-04-19 08:47 | 53.48156 | 0.21541 | 1036 ft | 227 kts | 51° |
| 2026-04-19 08:47 | 53.49074 | 0.23730 | 995 ft | 228 kts | 51° |
| 2026-04-19 08:47 | 53.50139 | 0.24613 | 1045 ft | 157 kts | 327° |
| 2026-04-19 08:48 | 53.50383 | 0.22828 | 603 ft | 203 kts | 249° |
| 2026-04-19 08:48 | 53.49669 | 0.20106 | 539 ft | 318 kts | 249° |
| 2026-04-19 08:48 | 53.48783 | 0.16950 | 288 ft | 270 kts | 245° |
| 2026-04-19 08:48 | 53.47972 | 0.14109 | 866 ft | 299 kts | 260° |
| 2026-04-19 08:49 | 53.48397 | 0.10583 | 934 ft | 342 kts | 301° |
| 2026-04-19 08:49 | 53.49821 | 0.06893 | 862 ft | 402 kts | 324° |
| 2026-04-19 08:49 | 53.51678 | 0.08451 | 768 ft | 370 kts | 99° |
| 2026-04-19 08:49 | 53.50146 | 0.12272 | 649 ft | 456 kts | 128° |
| 2026-04-19 08:50 | 53.47885 | 0.16561 | 309 ft | 530 kts | 142° |
| 2026-04-19 08:50 | 53.45421 | 0.21178 | 997 ft | 539 kts | 106° |
| 2026-04-19 08:50 | 53.43995 | 0.26594 | 1663 ft | 504 kts | 153° |
| 2026-04-19 08:50 | 53.41480 | 0.24558 | 1550 ft | 449 kts | 268° |
| 2026-04-19 08:51 | 53.43182 | 0.20764 | 475 ft | 451 kts | 335° |
| 2026-04-19 08:51 | 53.46097 | 0.18454 | 362 ft | 474 kts | 332° |
| 2026-04-19 08:51 | 53.48823 | 0.15241 | 399 ft | 481 kts | 318° |
| 2026-04-19 08:51 | 53.51253 | 0.11423 | 964 ft | 482 kts | 317° |
| 2026-04-19 08:52 | 53.53664 | 0.07793 | 530 ft | 422 kts | 330° |
| 2026-04-19 08:52 | 53.55322 | 0.08708 | 270 ft | 205 kts | 137° |
| 2026-04-19 08:52 | 53.54146 | 0.09353 | 232 ft | 185 kts | 189° |
| 2026-04-19 08:52 | 53.52756 | 0.09047 | 395 ft | 221 kts | 189° |
| 2026-04-19 08:53 | 53.51546 | 0.08661 | 253 ft | 144 kts | 207° |
| 2026-04-19 08:53 | 53.50572 | 0.08057 | 342 ft | 168 kts | 159° |
| 2026-04-19 08:53 | 53.49948 | 0.10040 | 290 ft | 270 kts | 101° |
| 2026-04-19 08:53 | 53.49112 | 0.13873 | 349 ft | 423 kts | 133° |
| 2026-04-19 08:54 | 53.46998 | 0.17466 | 2542 ft | 443 kts | 96° |
| 2026-04-19 08:54 | 53.48493 | 0.21942 | 6089 ft | 523 kts | 22° |
| 2026-04-19 08:54 | 53.52178 | 0.20627 | 6732 ft | 599 kts | 309° |
| 2026-04-19 08:54 | 53.52961 | 0.14609 | 7765 ft | 502 kts | 261° |
| 2026-04-19 08:55 | 53.52566 | 0.09227 | 8293 ft | 421 kts | 286° |
| 2026-04-19 08:55 | 53.54222 | 0.05094 | 9045 ft | 433 kts | 313° |
| 2026-04-19 08:55 | 53.56244 | 0.01350 | 9275 ft | 430 kts | 313° |
| 2026-04-19 08:55 | 53.58262 | -0.02397 | 10136 ft | 433 kts | 313° |
| 2026-04-19 08:56 | 53.60302 | -0.06181 | 10922 ft | 436 kts | 313° |
| 2026-04-19 08:56 | 53.62355 | -0.09985 | 11706 ft | 442 kts | 313° |
| 2026-04-19 08:56 | 53.64421 | -0.13805 | 12503 ft | 428 kts | 313° |
| 2026-04-19 08:56 | 53.66304 | -0.17287 | 13292 ft | 398 kts | 313° |
| 2026-04-19 08:57 | 53.68158 | -0.20635 | 13899 ft | 398 kts | 315° |
| 2026-04-19 08:57 | 53.70133 | -0.23904 | 14154 ft | 396 kts | 316° |
| 2026-04-19 08:57 | 53.72141 | -0.27092 | 14250 ft | 396 kts | 317° |
| 2026-04-19 08:57 | 53.74173 | -0.30257 | 14298 ft | 397 kts | 317° |
| 2026-04-19 08:58 | 53.76206 | -0.33399 | 14319 ft | 396 kts | 317° |
| 2026-04-19 08:58 | 53.78246 | -0.36538 | 14323 ft | 396 kts | 317° |
| 2026-04-19 08:58 | 53.80288 | -0.39677 | 14331 ft | 397 kts | 317° |
| 2026-04-19 08:58 | 53.82331 | -0.42814 | 14328 ft | 396 kts | 317° |
| 2026-04-19 08:59 | 53.84379 | -0.45960 | 14329 ft | 397 kts | 317° |
| 2026-04-19 08:59 | 53.86421 | -0.49100 | 14331 ft | 397 kts | 317° |
| 2026-04-19 08:59 | 53.88345 | -0.52435 | 14338 ft | 396 kts | 305° |
| 2026-04-19 08:59 | 53.89421 | -0.56736 | 14347 ft | 400 kts | 282° |
| 2026-04-19 09:00 | 53.89683 | -0.61386 | 14341 ft | 404 kts | 274° |
| 2026-04-19 09:00 | 53.89717 | -0.66149 | 14340 ft | 404 kts | 272° |
| 2026-04-19 09:00 | 53.89672 | -0.70922 | 14342 ft | 404 kts | 271° |
| 2026-04-19 09:00 | 53.89596 | -0.75694 | 14334 ft | 406 kts | 270° |
| 2026-04-19 09:01 | 53.89552 | -0.80464 | 14334 ft | 403 kts | 277° |
| 2026-04-19 09:01 | 53.90059 | -0.85132 | 14341 ft | 402 kts | 284° |
| 2026-04-19 09:01 | 53.90855 | -0.89658 | 14340 ft | 402 kts | 292° |
| 2026-04-19 09:01 | 53.92098 | -0.93864 | 14343 ft | 399 kts | 301° |
| 2026-04-19 09:02 | 53.93486 | -0.97957 | 14344 ft | 398 kts | 301° |
| 2026-04-19 09:02 | 53.93803 | -0.98898 | 14346 ft | 398 kts | 301° |
| 2026-04-19 09:09 | 53.94840 | -1.01980 | 14340 ft | 408 kts | 301° |
| 2026-04-19 09:09 | 53.96233 | -1.06146 | 14334 ft | 403 kts | 301° |
| 2026-04-19 09:09 | 53.97612 | -1.10287 | 14327 ft | 402 kts | 301° |
| 2026-04-19 09:10 | 53.98938 | -1.14279 | 14316 ft | 402 kts | 301° |
| 2026-04-19 09:10 | 54.00306 | -1.18409 | 14316 ft | 399 kts | 301° |
| 2026-04-19 09:10 | 54.01670 | -1.22535 | 14321 ft | 400 kts | 301° |
| 2026-04-19 09:10 | 54.03029 | -1.26651 | 14337 ft | 400 kts | 301° |
| 2026-04-19 09:11 | 54.04390 | -1.30780 | 14327 ft | 399 kts | 300° |
| 2026-04-19 09:11 | 54.05748 | -1.34900 | 14328 ft | 399 kts | 300° |
| 2026-04-19 09:11 | 54.07106 | -1.39028 | 14326 ft | 400 kts | 300° |
| 2026-04-19 09:11 | 54.08460 | -1.43145 | 14322 ft | 399 kts | 300° |
| 2026-04-19 09:12 | 54.09798 | -1.47219 | 14329 ft | 399 kts | 300° |
| 2026-04-19 09:12 | 54.11169 | -1.51400 | 14336 ft | 399 kts | 300° |
| 2026-04-19 09:12 | 54.12502 | -1.55468 | 14325 ft | 399 kts | 300° |
| 2026-04-19 09:12 | 54.13854 | -1.59597 | 14326 ft | 398 kts | 300° |
| 2026-04-19 09:13 | 54.15205 | -1.63728 | 14327 ft | 398 kts | 300° |
| 2026-04-19 09:13 | 54.16552 | -1.67855 | 14326 ft | 398 kts | 300° |
| 2026-04-19 09:13 | 54.17902 | -1.71991 | 14324 ft | 398 kts | 300° |
| 2026-04-19 09:13 | 54.19228 | -1.76131 | 14324 ft | 398 kts | 296° |
| 2026-04-19 09:14 | 54.19870 | -1.80726 | 14344 ft | 404 kts | 273° |
| 2026-04-19 09:14 | 54.19361 | -1.85452 | 14347 ft | 411 kts | 250° |
| 2026-04-19 09:14 | 54.17763 | -1.89548 | 14349 ft | 421 kts | 227° |
| 2026-04-19 09:14 | 54.15389 | -1.92549 | 14343 ft | 427 kts | 216° |
| 2026-04-19 09:15 | 54.12897 | -1.95274 | 14338 ft | 427 kts | 216° |
| 2026-04-19 09:15 | 54.10379 | -1.97963 | 14337 ft | 426 kts | 215° |
| 2026-04-19 09:15 | 54.05339 | -2.03276 | 14336 ft | 427 kts | 215° |
| 2026-04-19 09:16 | 54.02848 | -2.05886 | 14333 ft | 426 kts | 215° |
| 2026-04-19 09:16 | 54.00441 | -2.08783 | 14332 ft | 421 kts | 224° |
| 2026-04-19 09:16 | 53.98290 | -2.12170 | 14329 ft | 420 kts | 227° |
| 2026-04-19 09:16 | 53.96227 | -2.15683 | 14333 ft | 419 kts | 229° |
| 2026-04-19 09:17 | 53.94197 | -2.19242 | 14334 ft | 419 kts | 229° |
| 2026-04-19 09:17 | 53.92184 | -2.22809 | 14336 ft | 420 kts | 230° |
| 2026-04-19 09:17 | 53.90822 | -2.25233 | 14338 ft | 419 kts | 230° |
| 2026-04-19 09:17 | 53.88838 | -2.28769 | 14200 ft | 420 kts | 230° |
| 2026-04-19 09:18 | 53.86854 | -2.32308 | 13023 ft | 411 kts | 230° |
| 2026-04-19 09:18 | 53.84899 | -2.35804 | 12271 ft | 406 kts | 230° |
| 2026-04-19 09:18 | 53.83010 | -2.39194 | 11533 ft | 402 kts | 230° |
| 2026-04-19 09:18 | 53.81333 | -2.42906 | 10805 ft | 395 kts | 243° |
| 2026-04-19 09:19 | 53.80383 | -2.47188 | 9988 ft | 385 kts | 259° |
| 2026-04-19 09:19 | 53.79824 | -2.51578 | 8360 ft | 376 kts | 260° |
| 2026-04-19 09:19 | 53.79297 | -2.55845 | 6735 ft | 368 kts | 260° |
| 2026-04-19 09:19 | 53.78779 | -2.60046 | 5150 ft | 360 kts | 260° |
| 2026-04-19 09:20 | 53.78329 | -2.63612 | 3787 ft | 254 kts | 260° |
| 2026-04-19 09:20 | 53.78012 | -2.66017 | 2876 ft | 196 kts | 260° |
| 2026-04-19 09:20 | 53.77707 | -2.68503 | 2230 ft | 220 kts | 261° |
| 2026-04-19 09:20 | 53.77396 | -2.71023 | 1639 ft | 214 kts | 261° |
| 2026-04-19 09:21 | 53.77079 | -2.73511 | 1587 ft | 221 kts | 261° |
| 2026-04-19 09:21 | 53.76775 | -2.75927 | 1151 ft | 213 kts | 260° |
| 2026-04-19 09:21 | 53.76476 | -2.78258 | 807 ft | 194 kts | 257° |
| 2026-04-19 09:21 | 53.76089 | -2.80431 | 689 ft | 194 kts | 253° |
| 2026-04-19 09:22 | 53.75661 | -2.82576 | 532 ft | 191 kts | 253° |
| 2026-04-19 09:22 | 53.75242 | -2.84676 | 340 ft | 179 kts | 254° |
| 2026-04-19 09:22 | 53.74894 | -2.86378 | 116 ft | 152 kts | 253° |
| 2026-04-19 09:22 | 53.74501 | -2.88393 | 397 ft | 222 kts | 254° |
| 2026-04-19 09:23 | 53.73879 | -2.91540 | 1201 ft | 345 kts | 252° |
| 2026-04-19 09:23 | 53.73067 | -2.95375 | 2386 ft | 342 kts | 252° |
| 2026-04-19 09:23 | 53.72283 | -2.99272 | 3583 ft | 357 kts | 255° |
| 2026-04-19 09:23 | 53.71558 | -3.03269 | 3406 ft | 352 kts | 255° |
| 2026-04-19 09:24 | 53.70840 | -3.07223 | 3275 ft | 353 kts | 255° |
| 2026-04-19 09:24 | 53.70121 | -3.11159 | 3227 ft | 352 kts | 255° |
| 2026-04-19 09:24 | 53.69401 | -3.15103 | 3206 ft | 351 kts | 255° |
| 2026-04-19 09:24 | 53.68690 | -3.19000 | 3201 ft | 349 kts | 255° |
| 2026-04-19 09:25 | 53.68009 | -3.22945 | 3194 ft | 349 kts | 261° |
| 2026-04-19 09:25 | 53.68125 | -3.26979 | 3198 ft | 345 kts | 288° |
| 2026-04-19 09:25 | 53.69306 | -3.30449 | 3197 ft | 345 kts | 313° |
| 2026-04-19 09:25 | 53.71262 | -3.32685 | 3205 ft | 342 kts | 340° |
| 2026-04-19 09:26 | 53.73608 | -3.33334 | 3212 ft | 342 kts | 360° |
| 2026-04-19 09:26 | 53.75993 | -3.33012 | 3217 ft | 345 kts | 6° |
| 2026-04-19 09:26 | 53.78367 | -3.32415 | 3215 ft | 345 kts | 8° |
| 2026-04-19 09:26 | 53.80723 | -3.31730 | 3212 ft | 344 kts | 9° |
| 2026-04-19 09:27 | 53.83049 | -3.31012 | 3205 ft | 344 kts | 9° |
| 2026-04-19 09:27 | 53.85435 | -3.30256 | 3206 ft | 343 kts | 9° |
| 2026-04-19 09:27 | 53.87750 | -3.29499 | 3205 ft | 343 kts | 12° |
| 2026-04-19 09:27 | 53.89975 | -3.28018 | 3209 ft | 345 kts | 25° |
| 2026-04-19 09:28 | 53.92004 | -3.25838 | 3205 ft | 347 kts | 35° |
| 2026-04-19 09:28 | 53.93900 | -3.23295 | 3206 ft | 348 kts | 38° |
| 2026-04-19 09:28 | 53.95747 | -3.20655 | 3207 ft | 347 kts | 39° |
| 2026-04-19 09:28 | 53.97578 | -3.17973 | 3201 ft | 347 kts | 39° |
| 2026-04-19 09:29 | 53.99404 | -3.15265 | 3200 ft | 347 kts | 39° |
| 2026-04-19 09:29 | 54.01224 | -3.12554 | 3197 ft | 347 kts | 40° |
| 2026-04-19 09:29 | 54.03045 | -3.09835 | 3193 ft | 347 kts | 40° |
| 2026-04-19 09:29 | 54.04922 | -3.07249 | 3245 ft | 349 kts | 32° |
| 2026-04-19 09:30 | 54.07053 | -3.05306 | 3310 ft | 349 kts | 25° |
| 2026-04-19 09:30 | 54.09779 | -3.03060 | 3574 ft | 478 kts | 25° |
| 2026-04-19 09:30 | 54.12728 | -3.00642 | 3775 ft | 472 kts | 24° |
| 2026-04-19 09:30 | 54.15828 | -2.98967 | 3634 ft | 466 kts | 9° |
| 2026-04-19 09:31 | 54.19006 | -2.98013 | 3058 ft | 462 kts | 9° |
| 2026-04-19 09:31 | 54.22168 | -2.97073 | 2220 ft | 459 kts | 9° |
| 2026-04-19 09:31 | 54.25302 | -2.96125 | 1385 ft | 456 kts | 9° |
| 2026-04-19 09:31 | 54.28380 | -2.95276 | 586 ft | 451 kts | 4° |
| 2026-04-19 09:32 | 54.31460 | -2.95173 | 333 ft | 450 kts | 17° |
| 2026-04-19 09:32 | 54.34465 | -2.93764 | 480 ft | 451 kts | 9° |
| 2026-04-19 09:32 | 54.37610 | -2.92915 | 573 ft | 455 kts | 9° |
| 2026-04-19 09:32 | 54.40635 | -2.91618 | 934 ft | 447 kts | 22° |
| 2026-04-19 09:33 | 54.43436 | -2.89654 | 1936 ft | 444 kts | 355° |
| 2026-04-19 09:33 | 54.46153 | -2.92538 | 1903 ft | 467 kts | 1° |
| 2026-04-19 09:33 | 54.49526 | -2.92510 | 1270 ft | 489 kts | 8° |
| 2026-04-19 09:33 | 54.52742 | -2.92922 | 1037 ft | 490 kts | 333° |
| 2026-04-19 09:34 | 54.56122 | -2.94094 | 743 ft | 527 kts | 32° |
| 2026-04-19 09:34 | 54.57648 | -2.88474 | 801 ft | 491 kts | 75° |
| 2026-04-19 09:34 | 54.59362 | -2.84596 | 696 ft | 409 kts | 27° |
| 2026-04-19 09:34 | 54.61687 | -2.82136 | 1154 ft | 389 kts | 30° |
| 2026-04-19 09:35 | 54.63895 | -2.79605 | 1276 ft | 354 kts | 43° |
| 2026-04-19 09:35 | 54.65202 | -2.77614 | 1357 ft | 147 kts | 57° |
| 2026-04-19 09:35 | 54.65601 | -2.75013 | 2946 ft | 337 kts | 74° |
| 2026-04-19 09:35 | 54.66384 | -2.70761 | 3099 ft | 362 kts | 69° |
| 2026-04-19 09:36 | 54.67203 | -2.66662 | 3666 ft | 356 kts | 69° |
| 2026-04-19 09:36 | 54.67835 | -2.62498 | 4510 ft | 364 kts | 84° |
| 2026-04-19 09:36 | 54.67467 | -2.58149 | 5371 ft | 373 kts | 109° |
| 2026-04-19 09:36 | 54.66243 | -2.54188 | 6357 ft | 382 kts | 128° |
| 2026-04-19 09:37 | 54.64193 | -2.51233 | 7197 ft | 390 kts | 150° |
| 2026-04-19 09:37 | 54.61844 | -2.48877 | 7973 ft | 394 kts | 150° |
| 2026-04-19 09:37 | 54.59465 | -2.46466 | 8768 ft | 398 kts | 150° |
| 2026-04-19 09:37 | 54.57059 | -2.44011 | 9582 ft | 403 kts | 150° |
| 2026-04-19 09:38 | 54.54626 | -2.41515 | 10401 ft | 409 kts | 150° |
| 2026-04-19 09:38 | 54.52219 | -2.38942 | 11149 ft | 415 kts | 143° |
| 2026-04-19 09:38 | 54.50239 | -2.35296 | 11925 ft | 421 kts | 126° |
| 2026-04-19 09:38 | 54.48679 | -2.31006 | 12728 ft | 426 kts | 112° |
| 2026-04-19 09:39 | 54.47625 | -2.26212 | 13563 ft | 431 kts | 109° |
| 2026-04-19 09:39 | 54.46554 | -2.21353 | 14374 ft | 443 kts | 109° |
| 2026-04-19 09:39 | 54.45309 | -2.15736 | 14945 ft | 508 kts | 110° |
| 2026-04-19 09:39 | 54.44038 | -2.10047 | 15193 ft | 509 kts | 110° |
| 2026-04-19 09:40 | 54.42759 | -2.04356 | 15299 ft | 508 kts | 110° |
| 2026-04-19 09:40 | 54.41337 | -1.98780 | 15342 ft | 510 kts | 120° |
| 2026-04-19 09:40 | 54.39079 | -1.94107 | 15358 ft | 512 kts | 139° |
| 2026-04-19 09:40 | 54.36113 | -1.90776 | 15374 ft | 512 kts | 152° |
| 2026-04-19 09:41 | 54.33023 | -1.87761 | 15384 ft | 511 kts | 150° |
| 2026-04-19 09:41 | 54.29957 | -1.84701 | 15380 ft | 510 kts | 150° |
| 2026-04-19 09:41 | 54.26891 | -1.81613 | 15384 ft | 510 kts | 150° |
| 2026-04-19 09:41 | 54.23833 | -1.78526 | 15380 ft | 511 kts | 150° |
| 2026-04-19 09:42 | 54.20777 | -1.75438 | 15378 ft | 511 kts | 150° |
| 2026-04-19 09:42 | 54.17724 | -1.72357 | 15374 ft | 510 kts | 150° |
| 2026-04-19 09:42 | 54.14667 | -1.69273 | 15366 ft | 509 kts | 150° |
| 2026-04-19 09:42 | 54.11662 | -1.66183 | 15366 ft | 510 kts | 148° |
| 2026-04-19 09:43 | 54.08752 | -1.62908 | 15366 ft | 511 kts | 146° |
| 2026-04-19 09:43 | 54.05826 | -1.59481 | 15367 ft | 510 kts | 146° |
| 2026-04-19 09:43 | 54.02923 | -1.56030 | 15368 ft | 509 kts | 145° |
| 2026-04-19 09:43 | 54.00047 | -1.52592 | 15367 ft | 510 kts | 145° |
| 2026-04-19 09:44 | 53.97153 | -1.49125 | 15369 ft | 511 kts | 145° |
| 2026-04-19 09:44 | 53.94253 | -1.45650 | 15362 ft | 509 kts | 145° |
| 2026-04-19 09:44 | 53.91309 | -1.42315 | 15363 ft | 509 kts | 148° |
| 2026-04-19 09:44 | 53.88357 | -1.39219 | 15366 ft | 509 kts | 149° |
| 2026-04-19 09:45 | 53.85321 | -1.36130 | 15365 ft | 508 kts | 150° |
| 2026-04-19 09:45 | 53.82276 | -1.33072 | 15364 ft | 509 kts | 150° |
| 2026-04-19 09:45 | 53.79230 | -1.30035 | 15366 ft | 509 kts | 150° |
| 2026-04-19 09:45 | 53.76182 | -1.27007 | 15368 ft | 508 kts | 150° |
| 2026-04-19 09:46 | 53.73126 | -1.23977 | 15368 ft | 509 kts | 150° |
| 2026-04-19 09:46 | 53.70077 | -1.20957 | 15369 ft | 508 kts | 150° |
| 2026-04-19 09:46 | 53.67026 | -1.17940 | 14971 ft | 503 kts | 150° |
| 2026-04-19 09:46 | 53.64017 | -1.14972 | 14238 ft | 498 kts | 150° |
| 2026-04-19 09:47 | 53.61037 | -1.12045 | 13449 ft | 492 kts | 150° |
| 2026-04-19 09:47 | 53.58094 | -1.09166 | 12670 ft | 487 kts | 150° |
| 2026-04-19 09:47 | 53.55181 | -1.06324 | 11976 ft | 482 kts | 150° |
| 2026-04-19 09:47 | 53.52282 | -1.03503 | 11635 ft | 480 kts | 150° |
| 2026-04-19 09:48 | 53.49393 | -1.00698 | 11489 ft | 480 kts | 150° |
| 2026-04-19 09:48 | 53.46507 | -0.97900 | 11419 ft | 480 kts | 150° |
| 2026-04-19 09:48 | 53.43617 | -0.95102 | 11391 ft | 479 kts | 150° |
| 2026-04-19 09:48 | 53.40725 | -0.92305 | 11368 ft | 479 kts | 150° |
| 2026-04-19 09:49 | 53.37833 | -0.89511 | 11375 ft | 479 kts | 150° |
| 2026-04-19 09:49 | 53.34983 | -0.86759 | 11370 ft | 480 kts | 150° |
| 2026-04-19 09:49 | 53.32098 | -0.83976 | 11367 ft | 480 kts | 150° |
| 2026-04-19 09:49 | 53.29185 | -0.81213 | 11365 ft | 480 kts | 154° |
| 2026-04-19 09:50 | 53.26052 | -0.79375 | 11360 ft | 479 kts | 166° |
| 2026-04-19 09:50 | 53.22831 | -0.78075 | 10736 ft | 473 kts | 168° |
| 2026-04-19 09:50 | 53.19628 | -0.76961 | 9975 ft | 467 kts | 170° |
| 2026-04-19 09:50 | 53.16467 | -0.75939 | 9176 ft | 460 kts | 170° |
| 2026-04-19 09:51 | 53.13333 | -0.74971 | 8412 ft | 455 kts | 170° |
| 2026-04-19 09:51 | 53.10237 | -0.74044 | 7835 ft | 451 kts | 171° |
| 2026-04-19 09:51 | 53.07161 | -0.73142 | 7590 ft | 449 kts | 171° |
| 2026-04-19 09:51 | 53.04206 | -0.72029 | 7463 ft | 448 kts | 159° |
| 2026-04-19 09:52 | 53.01601 | -0.69459 | 7415 ft | 447 kts | 138° |
| 2026-04-19 09:52 | 52.99672 | -0.65455 | 7397 ft | 444 kts | 117° |
| 2026-04-19 09:52 | 52.98745 | -0.60658 | 7394 ft | 441 kts | 95° |
| 2026-04-19 09:52 | 52.98620 | -0.55578 | 7389 ft | 440 kts | 90° |
| 2026-04-19 09:53 | 52.98526 | -0.50592 | 6870 ft | 434 kts | 90° |
| 2026-04-19 09:53 | 52.98417 | -0.45606 | 6119 ft | 430 kts | 90° |
| 2026-04-19 09:53 | 52.98298 | -0.40628 | 5357 ft | 427 kts | 90° |
| 2026-04-19 09:53 | 52.98178 | -0.35801 | 4582 ft | 421 kts | 90° |
| 2026-04-19 09:54 | 52.98256 | -0.31004 | 3919 ft | 413 kts | 77° |
| 2026-04-19 09:54 | 52.99321 | -0.26640 | 3591 ft | 409 kts | 57° |
| 2026-04-19 09:54 | 53.00874 | -0.22719 | 3467 ft | 393 kts | 53° |
| 2026-04-19 09:54 | 53.02286 | -0.19305 | 3317 ft | 332 kts | 56° |
| 2026-04-19 09:55 | 53.03259 | -0.16110 | 3154 ft | 288 kts | 65° |
| 2026-04-19 09:55 | 53.03887 | -0.13191 | 2972 ft | 250 kts | 68° |
| 2026-04-19 09:55 | 53.04361 | -0.10673 | 2810 ft | 213 kts | 70° |
| 2026-04-19 09:55 | 53.04772 | -0.08362 | 2625 ft | 205 kts | 70° |
| 2026-04-19 09:56 | 53.05263 | -0.06190 | 2487 ft | 194 kts | 46° |
| 2026-04-19 09:56 | 53.06444 | -0.05320 | 2593 ft | 193 kts | 354° |
| 2026-04-19 09:56 | 53.07693 | -0.05966 | 2489 ft | 188 kts | 339° |
| 2026-04-19 09:56 | 53.08926 | -0.06766 | 1940 ft | 187 kts | 339° |
| 2026-04-19 09:57 | 53.10121 | -0.07597 | 1233 ft | 186 kts | 333° |
| 2026-04-19 09:57 | 53.10787 | -0.09269 | 787 ft | 201 kts | 263° |
| 2026-04-19 09:57 | 53.10333 | -0.11483 | 456 ft | 186 kts | 255° |
| 2026-04-19 09:57 | 53.09927 | -0.13518 | 213 ft | 174 kts | 256° |
| 2026-04-19 09:58 | 53.09616 | -0.15116 | 27 ft | 126 kts | 258° |
| 2026-04-19 09:58 | 53.09386 | -0.16281 | 27 ft | 93 kts | 251° |
| 2026-04-19 09:58 | 53.09210 | -0.17177 | 25 ft | 72 kts | 254° |
| 2026-04-19 09:58 | 53.09133 | -0.17778 | 26 ft | 49 kts | 281° |
| 2026-04-19 09:59 | 53.09187 | -0.17995 | 25 ft | 11 kts | 338° |
| 2026-04-19 09:59 | 53.09240 | -0.17918 | 25 ft | 12 kts | 73° |
| 2026-04-19 09:59 | 53.09267 | -0.17783 | 27 ft | 13 kts | 74° |
| 2026-04-19 09:59 | 53.09295 | -0.17749 | 25 ft | 6 kts | 320° |
| 2026-04-19 10:00 | 53.09322 | -0.17843 | 26 ft | 12 kts | 290° |
| 2026-04-19 10:00 | 53.09357 | -0.17972 | 27 ft | 13 kts | 296° |
| 2026-04-19 10:00 | 53.09383 | -0.18012 | 25 ft | 4 kts | 20° |
| 2026-04-19 10:00 | 53.09389 | -0.17988 | 25 ft | 0 kts | 69° |